createdAt,value
2018-02-17T00:01:35.149Z,19.07
2018-02-17T00:04:02.619Z,21.20
2018-02-17T00:06:30.046Z,18.40
2018-02-17T00:08:57.519Z,18.43
2018-02-17T00:11:24.952Z,19.03
2018-02-17T00:13:52.405Z,17.83
2018-02-17T00:16:19.846Z,19.03
2018-02-17T00:18:47.333Z,18.10
2018-02-17T00:21:14.761Z,20.17
2018-02-17T00:23:42.207Z,18.43
2018-02-17T00:26:09.644Z,16.67
2018-02-17T00:28:37.107Z,18.07
2018-02-17T00:31:04.576Z,19.20
2018-02-17T00:33:32.020Z,20.03
2018-02-17T00:35:59.475Z,20.20
2018-02-17T00:38:26.931Z,17.67
2018-02-17T00:40:54.484Z,20.23
2018-02-17T00:43:21.954Z,18.90
2018-02-17T00:45:49.392Z,17.13
2018-02-17T00:48:16.846Z,16.73
2018-02-17T00:50:44.280Z,18.50
2018-02-17T00:53:11.740Z,18.23
2018-02-17T00:55:39.172Z,18.13
2018-02-17T00:58:06.649Z,21.20
2018-02-17T01:00:34.114Z,21.33
2018-02-17T01:03:01.576Z,20.33
2018-02-17T01:05:29.025Z,18.80
2018-02-17T01:07:56.484Z,18.03
2018-02-17T01:10:23.929Z,20.50
2018-02-17T01:12:51.398Z,20.10
2018-02-17T01:15:19.637Z,20.63
2018-02-17T01:17:47.105Z,18.77
2018-02-17T01:20:14.556Z,17.97
2018-02-17T01:22:42.020Z,18.40
2018-02-17T01:25:09.635Z,17.43
2018-02-17T01:27:37.099Z,20.03
2018-02-17T01:30:04.569Z,18.50
2018-02-17T01:32:32.041Z,16.08
2018-02-17T01:34:59.509Z,19.70
2018-02-17T01:37:26.955Z,26.67
2018-02-17T01:39:54.406Z,23.30
2018-02-17T01:42:21.865Z,24.00
2018-02-17T01:44:49.362Z,21.13
2018-02-17T01:47:16.800Z,20.93
2018-02-17T01:49:44.248Z,25.17
2018-02-17T01:52:11.724Z,22.30
2018-02-17T01:54:40.193Z,19.40
2018-02-17T01:57:07.647Z,21.70
2018-02-17T01:59:35.097Z,21.73
2018-02-17T02:02:02.626Z,21.98
2018-02-17T02:04:30.843Z,18.77
2018-02-17T02:06:58.290Z,20.93
2018-02-17T02:09:27.054Z,21.50
2018-02-17T02:11:54.509Z,18.25
2018-02-17T02:14:21.976Z,18.48
2018-02-17T02:16:49.423Z,21.23
2018-02-17T02:19:16.888Z,18.98
2018-02-17T02:21:44.360Z,16.97
2018-02-17T02:24:11.801Z,17.10
2018-02-17T02:26:39.291Z,18.00
2018-02-17T02:29:06.734Z,18.20
2018-02-17T02:31:34.208Z,18.05
2018-02-17T02:34:01.664Z,18.05
2018-02-17T02:36:29.142Z,17.60
2018-02-17T02:38:56.586Z,17.52
2018-02-17T02:41:24.076Z,17.37
2018-02-17T02:43:51.525Z,17.10
2018-02-17T02:46:18.982Z,17.37
2018-02-17T02:48:46.426Z,16.50
2018-02-17T02:51:13.898Z,17.10
2018-02-17T02:53:42.065Z,18.40
2018-02-17T02:56:09.523Z,17.02
2018-02-17T02:58:36.964Z,19.43
2018-02-17T03:01:04.410Z,15.87
2018-02-17T03:03:32.169Z,18.20
2018-02-17T03:05:59.640Z,18.75
2018-02-17T03:08:27.082Z,17.97
2018-02-17T03:10:54.544Z,19.30
2018-02-17T03:13:21.996Z,19.60
2018-02-17T03:15:49.543Z,19.80
2018-02-17T03:18:17.041Z,21.10
2018-02-17T03:20:44.466Z,19.60
2018-02-17T03:23:11.927Z,18.40
2018-02-17T03:25:39.387Z,18.57
2018-02-17T03:28:06.837Z,17.47
2018-02-17T03:30:34.300Z,18.43
2018-02-17T03:33:01.765Z,17.55
2018-02-17T03:35:29.216Z,18.95
2018-02-17T03:37:57.568Z,16.67
2018-02-17T03:40:25.072Z,17.20
2018-02-17T03:42:52.529Z,18.10
2018-02-17T03:45:19.974Z,18.73
2018-02-17T03:47:47.430Z,19.27
2018-02-17T03:50:14.908Z,19.30
2018-02-17T03:52:42.356Z,19.50
2018-02-17T03:55:09.812Z,16.80
2018-02-17T03:57:37.259Z,19.70
2018-02-17T04:00:04.726Z,18.10
2018-02-17T04:02:32.179Z,19.75
2018-02-17T04:04:59.635Z,17.45
2018-02-17T04:07:28.124Z,22.05
2018-02-17T04:09:55.586Z,18.50
2018-02-17T04:12:23.043Z,17.63
2018-02-17T04:14:50.509Z,18.33
2018-02-17T04:17:17.966Z,18.25
2018-02-17T04:19:45.430Z,17.40
2018-02-17T04:22:13.046Z,18.03
2018-02-17T04:24:40.491Z,18.53
2018-02-17T04:27:07.949Z,31.17
2018-02-17T04:29:35.416Z,17.83
2018-02-17T04:32:02.884Z,16.70
2018-02-17T04:34:30.356Z,17.60
2018-02-17T04:36:57.813Z,17.73
2018-02-17T04:39:25.277Z,16.33
2018-02-17T04:42:06.539Z,14.80
2018-02-17T04:44:37.473Z,17.77
2018-02-17T04:47:14.337Z,14.83
2018-02-17T04:49:42.264Z,17.70
2018-02-17T04:52:16.039Z,15.50
2018-02-17T04:54:49.181Z,15.13
2018-02-17T04:57:16.616Z,16.25
2018-02-17T04:59:50.401Z,15.60
2018-02-17T05:02:32.721Z,14.03
2018-02-17T05:05:06.707Z,14.27
2018-02-17T05:07:49.059Z,15.67
2018-02-17T05:10:16.543Z,15.40
2018-02-17T05:12:43.987Z,16.30
2018-02-17T05:15:24.172Z,14.03
2018-02-17T05:17:51.628Z,15.57
2018-02-17T05:20:19.096Z,13.30
2018-02-17T05:22:49.101Z,14.20
2018-02-17T05:25:33.229Z,14.57
2018-02-17T05:28:00.694Z,18.67
2018-02-17T05:30:28.146Z,15.07
2018-02-17T05:33:00.026Z,15.30
2018-02-17T05:35:37.464Z,16.58
2018-02-17T05:38:04.900Z,16.80
2018-02-17T05:40:33.161Z,16.03
2018-02-17T05:43:01.307Z,18.70
2018-02-17T05:45:29.598Z,16.17
2018-02-17T05:48:09.885Z,15.77
2018-02-17T05:50:37.829Z,18.00
2018-02-17T05:53:05.280Z,17.55
2018-02-17T05:55:32.740Z,16.33
2018-02-17T05:58:00.235Z,16.30
2018-02-17T06:00:28.468Z,18.07
2018-02-17T06:02:56.187Z,17.30
2018-02-17T06:05:23.592Z,17.42
2018-02-17T06:07:52.038Z,19.13
2018-02-17T06:10:19.509Z,16.87
2018-02-17T06:12:46.969Z,18.20
2018-02-17T06:15:14.441Z,17.27
2018-02-17T06:17:41.884Z,21.40
2018-02-17T06:20:09.372Z,19.02
2018-02-17T06:22:36.823Z,19.07
2018-02-17T06:25:04.289Z,18.10
2018-02-17T06:27:31.731Z,18.33
2018-02-17T06:29:59.192Z,20.48
2018-02-17T06:32:26.656Z,19.97
2018-02-17T06:34:54.095Z,19.50
2018-02-17T06:37:22.272Z,20.30
2018-02-17T06:39:49.726Z,21.08
2018-02-17T06:42:17.237Z,19.85
2018-02-17T06:44:44.675Z,19.95
2018-02-17T06:47:12.144Z,18.97
2018-02-17T06:49:39.616Z,20.60
2018-02-17T06:52:07.082Z,19.80
2018-02-17T06:54:34.553Z,20.08
2018-02-17T06:57:01.998Z,19.02
2018-02-17T06:59:29.465Z,21.45
2018-02-17T07:01:56.910Z,21.67
2018-02-17T07:04:24.376Z,21.75
2018-02-17T07:06:51.820Z,20.23
2018-02-17T07:09:19.468Z,23.00
2018-02-17T07:11:47.248Z,21.40
2018-02-17T07:14:14.715Z,21.58
2018-02-17T07:16:42.188Z,21.40
2018-02-17T07:19:09.703Z,20.25
2018-02-17T07:21:37.177Z,21.40
2018-02-17T07:24:04.621Z,21.85
2018-02-17T07:26:32.093Z,20.85
2018-02-17T07:28:59.551Z,21.23
2018-02-17T07:31:27.192Z,20.73
2018-02-17T07:33:55.412Z,21.43
2018-02-17T07:36:22.872Z,21.98
2018-02-17T07:38:50.325Z,22.60
2018-02-17T07:41:17.785Z,19.33
2018-02-17T07:43:45.230Z,21.40
2018-02-17T07:46:12.688Z,20.30
2018-02-17T07:48:40.172Z,23.40
2018-02-17T07:51:07.614Z,20.10
2018-02-17T07:53:35.236Z,22.70
2018-02-17T07:56:02.720Z,20.37
2018-02-17T07:58:30.178Z,19.92
2018-02-17T08:00:57.636Z,19.70
2018-02-17T08:03:25.088Z,17.50
2018-02-17T08:05:52.551Z,17.83
2018-02-17T08:08:19.999Z,19.27
2018-02-17T08:10:47.453Z,18.58
2018-02-17T08:13:14.908Z,19.23
2018-02-17T08:15:42.355Z,21.00
2018-02-17T08:18:09.818Z,19.98
2018-02-17T08:20:37.293Z,21.48
2018-02-17T08:23:04.749Z,16.87
2018-02-17T08:25:32.192Z,19.27
2018-02-17T08:27:59.693Z,18.52
2018-02-17T08:30:27.154Z,16.87
2018-02-17T08:32:54.629Z,17.62
2018-02-17T08:35:22.100Z,18.70
2018-02-17T08:37:49.565Z,21.02
2018-02-17T08:40:17.029Z,19.10
2018-02-17T08:42:44.512Z,19.15
2018-02-17T08:45:11.985Z,17.90
2018-02-17T08:47:39.456Z,19.87
2018-02-17T08:50:06.932Z,22.25
2018-02-17T08:52:35.168Z,17.52
2018-02-17T08:55:02.667Z,20.23
2018-02-17T08:57:30.124Z,20.00
2018-02-17T08:59:57.592Z,19.00
2018-02-17T09:02:25.036Z,19.60
2018-02-17T09:04:52.553Z,19.20
2018-02-17T09:07:20.517Z,19.87
2018-02-17T09:09:47.977Z,17.73
2018-02-17T09:12:15.454Z,19.73
2018-02-17T09:14:42.908Z,18.90
2018-02-17T09:17:10.366Z,18.07
2018-02-17T09:19:37.859Z,19.07
2018-02-17T09:22:05.324Z,17.87
2018-02-17T09:24:33.601Z,20.97
2018-02-17T09:27:01.060Z,18.67
2018-02-17T09:29:28.558Z,19.73
2018-02-17T09:31:55.993Z,22.35
2018-02-17T09:34:23.459Z,18.75
2018-02-17T09:36:50.936Z,19.17
2018-02-17T09:39:18.435Z,17.95
2018-02-17T09:41:45.902Z,17.97
2018-02-17T09:44:13.889Z,16.85
2018-02-17T09:46:41.378Z,18.10
2018-02-17T09:49:08.813Z,16.45
2018-02-17T09:51:36.262Z,15.60
2018-02-17T09:54:03.743Z,15.70
2018-02-17T09:56:31.193Z,13.32
2018-02-17T09:58:58.701Z,13.25
2018-02-17T10:01:26.166Z,14.60
2018-02-17T10:03:53.673Z,14.20
2018-02-17T10:06:21.130Z,13.83
2018-02-17T10:08:48.594Z,12.70
2018-02-17T10:11:16.122Z,14.65
2018-02-17T10:13:43.598Z,13.88
2018-02-17T10:16:11.041Z,12.27
2018-02-17T10:18:38.552Z,12.37
2018-02-17T10:21:06.019Z,11.45
2018-02-17T10:23:33.507Z,11.48
2018-02-17T10:26:00.982Z,10.52
2018-02-17T10:28:28.473Z,9.98
2018-02-17T10:30:55.949Z,9.43
2018-02-17T10:33:23.416Z,10.20
2018-02-17T10:35:50.889Z,9.70
2018-02-17T10:38:18.357Z,8.10
2018-02-17T10:40:45.833Z,8.57
2018-02-17T10:43:13.269Z,8.80
2018-02-17T10:45:40.741Z,9.27
2018-02-17T10:48:08.216Z,8.13
2018-02-17T10:50:35.914Z,8.82
2018-02-17T10:53:03.369Z,7.32
2018-02-17T10:55:36.573Z,8.00
2018-02-17T10:58:04.030Z,7.10
2018-02-17T11:00:31.472Z,7.97
2018-02-17T11:02:58.936Z,8.23
2018-02-17T11:05:26.418Z,8.10
2018-02-17T11:07:53.879Z,7.90
2018-02-17T11:10:21.328Z,7.83
2018-02-17T11:12:48.790Z,8.88
2018-02-17T11:15:16.240Z,8.90
2018-02-17T11:17:43.706Z,7.30
2018-02-17T11:20:11.152Z,8.93
2018-02-17T11:22:38.608Z,7.70
2018-02-17T11:25:06.815Z,9.40
2018-02-17T11:27:34.332Z,7.57
2018-02-17T11:30:01.788Z,8.95
2018-02-17T11:32:29.256Z,8.27
2018-02-17T11:34:57.511Z,9.02
2018-02-17T11:37:24.966Z,9.35
2018-02-17T11:39:52.437Z,8.23
2018-02-17T11:42:19.896Z,9.33
2018-02-17T11:44:47.386Z,9.40
2018-02-17T11:47:15.111Z,9.50
2018-02-17T11:49:42.557Z,11.80
2018-02-17T11:52:10.021Z,9.30
2018-02-17T11:54:37.474Z,11.50
2018-02-17T11:57:04.980Z,11.65
2018-02-17T11:59:32.527Z,11.73
2018-02-17T12:02:00.087Z,10.80
2018-02-17T12:04:27.548Z,13.67
2018-02-17T12:06:55.782Z,11.93
2018-02-17T12:09:23.244Z,12.60
2018-02-17T12:11:50.701Z,13.57
2018-02-17T12:14:18.273Z,13.80
2018-02-17T12:16:45.761Z,13.17
2018-02-17T12:19:13.215Z,14.00
2018-02-17T12:21:40.679Z,14.07
2018-02-17T12:24:08.140Z,14.30
2018-02-17T12:26:35.585Z,15.90
2018-02-17T12:29:03.048Z,15.53
2018-02-17T12:31:30.529Z,15.37
2018-02-17T12:33:58.018Z,14.35
2018-02-17T12:36:25.477Z,13.73
2018-02-17T12:38:53.384Z,12.67
2018-02-17T12:41:20.965Z,12.90
2018-02-17T12:43:48.412Z,12.27
2018-02-17T12:46:16.638Z,22.47
2018-02-17T12:48:44.109Z,19.60
2018-02-17T12:51:11.571Z,11.47
2018-02-17T12:53:39.815Z,12.10
2018-02-17T12:56:08.057Z,11.60
2018-02-17T12:58:35.513Z,12.73
2018-02-17T13:01:02.985Z,12.02
2018-02-17T13:03:30.530Z,12.02
2018-02-17T13:05:57.987Z,12.60
2018-02-17T13:08:25.476Z,15.38
2018-02-17T13:10:52.952Z,14.15
2018-02-17T13:13:20.428Z,12.88
2018-02-17T13:15:47.909Z,11.68
2018-02-17T13:18:16.212Z,12.70
2018-02-17T13:20:43.669Z,13.20
2018-02-17T13:23:11.151Z,11.23
2018-02-17T13:25:38.602Z,11.93
2018-02-17T13:28:06.064Z,12.57
2018-02-17T13:30:33.544Z,12.90
2018-02-17T13:33:01.014Z,13.10
2018-02-17T13:35:29.264Z,13.65
2018-02-17T13:37:56.733Z,14.57
2018-02-17T13:40:24.197Z,14.45
2018-02-17T13:42:51.653Z,14.40
2018-02-17T13:45:19.111Z,16.02
2018-02-17T13:47:46.596Z,18.30
2018-02-17T13:50:14.146Z,14.65
2018-02-17T13:52:41.652Z,16.33
2018-02-17T13:55:09.136Z,16.27
2018-02-17T13:57:36.583Z,14.87
2018-02-17T14:00:04.057Z,16.07
2018-02-17T14:02:33.222Z,13.57
2018-02-17T14:05:00.685Z,15.07
2018-02-17T14:07:28.183Z,12.27
2018-02-17T14:09:55.869Z,13.60
2018-02-17T14:12:23.335Z,15.75
2018-02-17T14:14:50.797Z,15.82
2018-02-17T14:17:18.276Z,15.77
2018-02-17T14:19:45.748Z,17.30
2018-02-17T14:22:14.222Z,15.95
2018-02-17T14:24:41.700Z,14.90
2018-02-17T14:27:09.944Z,16.60
2018-02-17T14:29:37.912Z,16.23
2018-02-17T14:32:05.376Z,16.35
2018-02-17T14:34:32.831Z,16.10
2018-02-17T14:37:00.298Z,15.75
2018-02-17T14:39:27.774Z,16.30
2018-02-17T14:41:55.215Z,17.37
2018-02-17T14:44:23.709Z,17.98
2018-02-17T14:46:51.166Z,19.57
2018-02-17T14:49:18.641Z,17.73
2018-02-17T14:51:46.342Z,20.60
2018-02-17T14:54:13.835Z,18.10
2018-02-17T14:56:41.303Z,19.25
2018-02-17T14:59:08.763Z,19.73
2018-02-17T15:01:36.229Z,20.73
2018-02-17T15:04:03.694Z,21.35
2018-02-17T15:06:31.927Z,18.93
2018-02-17T15:08:59.407Z,18.70
2018-02-17T15:11:26.933Z,20.07
2018-02-17T15:13:55.161Z,20.70
2018-02-17T15:16:23.420Z,20.10
2018-02-17T15:18:50.906Z,21.47
2018-02-17T15:21:18.364Z,21.62
2018-02-17T15:23:45.957Z,24.30
2018-02-17T15:26:13.425Z,24.92
2018-02-17T15:28:40.890Z,27.00
2018-02-17T15:31:08.365Z,24.00
2018-02-17T15:33:35.853Z,23.27
2018-02-17T15:36:03.306Z,22.87
2018-02-17T15:38:30.795Z,21.77
2018-02-17T15:40:58.317Z,20.48
2018-02-17T15:43:25.782Z,20.50
2018-02-17T15:45:53.273Z,19.08
2018-02-17T15:48:20.745Z,21.87
2018-02-17T15:50:48.204Z,21.98
2018-02-17T15:53:15.666Z,19.35
2018-02-17T15:55:43.132Z,20.50
2018-02-17T15:58:10.755Z,20.15
2018-02-17T16:00:38.221Z,18.40
2018-02-17T16:03:05.677Z,20.05
2018-02-17T16:05:33.193Z,16.85
2018-02-17T16:08:00.622Z,17.08
2018-02-17T16:10:28.074Z,17.73
2018-02-17T16:12:55.560Z,15.73
2018-02-17T16:15:24.630Z,17.92
2018-02-17T16:17:52.103Z,16.87
2018-02-17T16:20:19.671Z,17.50
2018-02-17T16:22:47.153Z,19.77
2018-02-17T16:25:14.593Z,15.85
2018-02-17T16:27:42.110Z,18.05
2018-02-17T16:30:10.408Z,17.67
2018-02-17T16:32:37.890Z,19.95
2018-02-17T16:35:06.117Z,17.90
2018-02-17T16:37:33.565Z,16.67
2018-02-17T16:40:01.029Z,19.45
2018-02-17T16:42:28.653Z,19.33
2018-02-17T16:44:56.131Z,19.40
2018-02-17T16:47:23.587Z,20.50
2018-02-17T16:49:51.045Z,21.23
2018-02-17T16:52:18.517Z,21.10
2018-02-17T16:54:45.962Z,19.45
2018-02-17T16:57:13.461Z,19.95
2018-02-17T16:59:40.900Z,23.15
2018-02-17T17:02:08.406Z,0.85
2018-02-17T17:04:35.856Z,0.70
2018-02-17T17:07:03.299Z,1.87
2018-02-17T17:09:30.752Z,0.40
2018-02-17T17:11:58.189Z,0.30
2018-02-17T17:14:25.624Z,0.60
2018-02-17T17:16:53.068Z,0.30
2018-02-17T17:19:20.522Z,0.30
2018-02-17T17:21:47.983Z,1.37
2018-02-17T17:24:15.432Z,0.55
2018-02-17T17:26:42.863Z,0.40
2018-02-17T17:29:10.335Z,0.30
2018-02-17T17:31:37.767Z,0.53
2018-02-17T17:34:05.240Z,0.50
2018-02-17T17:36:32.670Z,0.40
2018-02-17T17:39:00.104Z,1.70
2018-02-17T17:41:27.561Z,1.65
2018-02-17T17:43:55.037Z,0.40
2018-02-17T17:46:23.198Z,0.30
2018-02-17T17:48:50.658Z,0.30
2018-02-17T17:51:18.112Z,0.30
2018-02-17T17:53:45.547Z,0.52
2018-02-17T17:56:13.768Z,0.62
2018-02-17T17:58:41.966Z,0.30
2018-02-17T18:01:09.419Z,0.40
2018-02-17T18:03:36.843Z,0.30
2018-02-17T18:06:04.297Z,0.40
2018-02-17T18:08:31.729Z,4.20
2018-02-17T18:10:59.269Z,0.85
2018-02-17T18:13:26.726Z,0.70
2018-02-17T18:15:54.180Z,0.60
2018-02-17T18:18:21.623Z,0.30
2018-02-17T18:20:49.047Z,0.55
2018-02-17T18:23:16.495Z,0.30
2018-02-17T18:25:43.948Z,0.30
2018-02-17T18:28:11.403Z,0.30
2018-02-17T18:30:38.873Z,1.25
2018-02-17T18:33:06.328Z,0.30
2018-02-17T18:35:33.768Z,0.30
2018-02-17T18:38:01.234Z,0.75
2018-02-17T18:40:28.689Z,0.30
2018-02-17T18:42:56.191Z,0.30
2018-02-17T18:45:23.628Z,1.45
2018-02-17T18:47:51.102Z,1.15
2018-02-17T18:50:18.552Z,0.30
2018-02-17T18:52:46.955Z,0.43
2018-02-17T18:55:14.455Z,1.52
2018-02-17T18:57:41.924Z,0.93
2018-02-17T19:00:09.411Z,0.60
2018-02-17T19:02:37.609Z,0.37
2018-02-17T19:05:05.092Z,0.30
2018-02-17T19:07:32.544Z,0.40
2018-02-17T19:10:00.104Z,2.80
2018-02-17T19:12:27.537Z,0.40
2018-02-17T19:14:55.032Z,0.50
2018-02-17T19:17:22.452Z,0.30
2018-02-17T19:19:49.942Z,0.93
2018-02-17T19:22:17.424Z,0.30
2018-02-17T19:24:44.904Z,0.82
2018-02-17T19:27:12.329Z,0.30
2018-02-17T19:29:39.799Z,0.30
2018-02-17T19:32:07.235Z,0.95
2018-02-17T19:34:34.709Z,0.30
2018-02-17T19:37:02.144Z,0.62
2018-02-17T19:39:29.612Z,0.62
2018-02-17T19:41:57.092Z,0.50
2018-02-17T19:44:24.548Z,0.30
2018-02-17T19:46:51.980Z,2.25
2018-02-17T19:49:19.428Z,0.30
2018-02-17T19:51:46.897Z,0.30
2018-02-17T19:54:14.328Z,0.40
2018-02-17T19:56:41.765Z,0.77
2018-02-17T19:59:09.239Z,0.40
2018-02-17T20:01:36.665Z,0.30
2018-02-17T20:04:04.146Z,0.30
2018-02-17T20:06:31.602Z,1.02
2018-02-17T20:08:59.047Z,0.30
2018-02-17T20:11:26.472Z,0.40
2018-02-17T20:13:53.961Z,0.65
2018-02-17T20:16:21.373Z,8.30
2018-02-17T20:18:48.802Z,0.30
2018-02-17T20:21:16.328Z,0.50
2018-02-17T20:23:43.816Z,3.15
2018-02-17T20:26:11.237Z,0.30
2018-02-17T20:28:38.673Z,0.30
2018-02-17T20:31:06.121Z,0.62
2018-02-17T20:33:33.580Z,0.30
2018-02-17T20:36:01.038Z,0.40
2018-02-17T20:38:29.260Z,0.50
2018-02-17T20:40:56.735Z,0.30
2018-02-17T20:43:24.379Z,0.30
2018-02-17T20:45:51.812Z,0.55
2018-02-17T20:48:19.285Z,0.30
2018-02-17T20:50:46.703Z,0.95
2018-02-17T20:53:14.150Z,0.40
2018-02-17T20:55:41.581Z,0.30
2018-02-17T20:58:09.019Z,3.80
2018-02-17T21:00:36.465Z,0.40
2018-02-17T21:03:03.932Z,0.40
2018-02-17T21:05:32.628Z,0.40
2018-02-17T21:08:00.076Z,0.62
2018-02-17T21:10:27.523Z,0.50
2018-02-17T21:12:54.987Z,0.30
2018-02-17T21:15:23.208Z,0.40
2018-02-17T21:17:50.643Z,0.30
2018-02-17T21:20:18.099Z,0.43
2018-02-17T21:22:45.560Z,1.48
2018-02-17T21:25:12.992Z,0.40
2018-02-17T21:27:40.444Z,0.30
2018-02-17T21:30:07.939Z,0.45
2018-02-17T21:32:35.388Z,0.40
2018-02-17T21:35:02.848Z,0.30
2018-02-17T21:37:30.889Z,0.30
2018-02-17T21:39:58.344Z,0.32
2018-02-17T21:42:26.031Z,0.88
2018-02-17T21:44:53.493Z,0.30
2018-02-17T21:47:20.990Z,0.30
2018-02-17T21:49:48.478Z,0.40
2018-02-17T21:52:15.943Z,0.40
2018-02-17T21:54:43.396Z,0.73
2018-02-17T21:57:10.823Z,0.30
2018-02-17T21:59:39.068Z,0.47
2018-02-17T22:02:06.491Z,0.50
2018-02-17T22:04:33.933Z,0.30
2018-02-17T22:07:01.393Z,0.32
2018-02-17T22:09:28.843Z,1.00
2018-02-17T22:11:56.285Z,0.30
2018-02-17T22:14:23.703Z,0.50
2018-02-17T22:16:51.153Z,0.30
2018-02-17T22:19:18.608Z,1.48
2018-02-17T22:21:46.824Z,0.73
2018-02-17T22:24:14.267Z,0.40
2018-02-17T22:26:42.506Z,0.85
2018-02-17T22:29:09.967Z,0.30
2018-02-17T22:31:37.394Z,1.05
2018-02-17T22:34:04.852Z,0.30
2018-02-17T22:36:32.303Z,0.30
2018-02-17T22:38:59.732Z,0.30
2018-02-17T22:41:27.168Z,0.30
2018-02-17T22:43:54.627Z,0.30
2018-02-17T22:46:22.081Z,0.50
2018-02-17T22:48:49.508Z,0.95
2018-02-17T22:51:16.993Z,1.37
2018-02-17T22:53:45.064Z,0.40
2018-02-17T22:56:12.591Z,0.30
2018-02-17T22:58:40.038Z,0.30
2018-02-17T23:01:07.509Z,1.52
2018-02-17T23:03:34.948Z,0.30
2018-02-17T23:06:02.420Z,0.30
2018-02-17T23:08:29.878Z,2.70
2018-02-17T23:10:57.300Z,0.30
2018-02-17T23:13:24.732Z,0.30
2018-02-17T23:15:52.191Z,8.60
2018-02-17T23:18:19.740Z,1.87
2018-02-17T23:20:47.202Z,0.30
2018-02-17T23:23:14.932Z,0.30
2018-02-17T23:25:42.380Z,4.00
2018-02-17T23:28:09.824Z,0.30
2018-02-17T23:30:38.041Z,0.30
2018-02-17T23:33:05.476Z,1.02
2018-02-17T23:35:32.968Z,0.40
2018-02-17T23:38:00.396Z,2.42
2018-02-17T23:40:28.029Z,8.45
2018-02-17T23:42:55.488Z,1.02
2018-02-17T23:45:23.743Z,0.50
2018-02-17T23:47:51.127Z,0.40
2018-02-17T23:50:18.618Z,0.60
2018-02-17T23:52:46.105Z,0.30
2018-02-17T23:55:13.557Z,0.35
2018-02-17T23:57:40.989Z,1.20
